Terminal Aerodrome Forecast
Issued by NWS

Home | Current Version | Previous Version | Text Only | Print | Product List | Glossary On
Versions: 1 2 3 4 5 6 7 8 9 10 11 12 13 14 15 16 17 18 19 20 21 22 23 24 25 26 27 28 29 30 31 32
087
FTUS45 KREV 062046 AAA
TAFCXP
TAF AMD
KCXP 062046Z 0621/0718 VRB05KT P6SM FEW040 SCT180
     FM070000 25007KT 6SM -SHRA VCTS FEW025 BKN040CB
     FM070300 31006KT P6SM VCSH FEW010 BKN035
     FM071000 VRB04KT 4SM RA BR SCT015 OVC030=

USA.gov is the U.S. government's official web portal to all federal, state and local government web resources and services.